createdAt,value
2023-01-31T00:05:24.078Z,98996.00
2023-01-31T00:33:26.544Z,98981.00
2023-01-31T00:40:14.380Z,98988.00
2023-01-31T01:03:23.500Z,98993.00
2023-01-31T01:14:22.517Z,98974.00
2023-01-31T01:18:23.348Z,98974.00
2023-01-31T01:25:16.023Z,98986.00
2023-01-31T01:42:51.244Z,98952.00
2023-01-31T01:49:44.007Z,98965.00
2023-01-31T01:56:38.028Z,98988.00
2023-01-31T03:35:39.124Z,99006.00
2023-01-31T03:42:48.094Z,99038.00
2023-01-31T03:59:29.700Z,99060.00
2023-01-31T04:03:23.995Z,99042.00
2023-01-31T04:10:18.619Z,99055.00
2023-01-31T04:35:15.973Z,99051.00
2023-01-31T04:42:05.669Z,99063.00
2023-01-31T05:05:43.319Z,99071.00
2023-01-31T05:12:33.059Z,99049.00
2023-01-31T05:19:25.717Z,99056.00
2023-01-31T05:26:07.220Z,99054.00
2023-01-31T05:32:54.032Z,99061.00
2023-01-31T05:39:40.739Z,99059.00
2023-01-31T05:46:23.206Z,99056.00
2023-01-31T05:53:11.213Z,99070.00
2023-01-31T06:00:03.039Z,99079.00
2023-01-31T07:32:08.789Z,99082.00
2023-01-31T07:35:57.790Z,99083.00
2023-01-31T07:42:44.974Z,99083.00
2023-01-31T07:49:34.102Z,99069.00
2023-01-31T07:56:16.769Z,99098.00
2023-01-31T08:17:08.355Z,99103.00
2023-01-31T08:28:06.877Z,99097.00
2023-01-31T08:48:55.670Z,99112.00
2023-01-31T08:52:24.503Z,99103.00
2023-01-31T08:59:13.730Z,99111.00
2023-01-31T09:06:01.205Z,99110.00
2023-01-31T09:12:48.719Z,99103.00
2023-01-31T09:19:51.265Z,99122.00
2023-01-31T09:26:59.373Z,99079.00
2023-01-31T09:33:46.857Z,99113.00
2023-01-31T09:40:36.483Z,99088.00
2023-01-31T10:09:23.022Z,99103.00
2023-01-31T10:16:14.422Z,99096.00
2023-01-31T10:23:09.821Z,99105.00
2023-01-31T10:30:02.185Z,99110.00
2023-01-31T10:36:54.967Z,99094.00
2023-01-31T10:43:48.952Z,99079.00
2023-01-31T10:51:10.056Z,99035.00
2023-01-31T11:07:42.606Z,99066.00
2023-01-31T11:14:30.227Z,99068.00
2023-01-31T11:21:11.006Z,99080.00
2023-01-31T11:28:03.007Z,99063.00
2023-01-31T11:35:03.853Z,99019.00
2023-01-31T11:42:49.158Z,99035.00
2023-01-31T11:53:52.820Z,99017.00
2023-01-31T12:00:57.187Z,99015.00
2023-01-31T12:04:27.359Z,99011.00
2023-01-31T12:11:30.311Z,99006.00
2023-01-31T12:18:23.937Z,98979.00
2023-01-31T12:35:00.491Z,98987.00
2023-01-31T12:47:10.669Z,98956.00
2023-01-31T12:55:17.631Z,98951.00
2023-01-31T12:59:16.345Z,98934.00
2023-01-31T13:02:20.376Z,98917.00
2023-01-31T13:09:15.419Z,98912.00
2023-01-31T13:12:28.686Z,98915.00
2023-01-31T13:23:35.225Z,98938.00
2023-01-31T13:30:32.137Z,98918.00
2023-01-31T13:38:18.995Z,98911.00
2023-01-31T13:53:56.439Z,98908.00
2023-01-31T14:00:45.399Z,98903.00
2023-01-31T14:07:35.003Z,98922.00
2023-01-31T14:10:44.243Z,98901.00
2023-01-31T14:14:19.637Z,98912.00
2023-01-31T14:22:17.743Z,98937.00
2023-01-31T14:29:58.750Z,98912.00
2023-01-31T14:33:28.102Z,98895.00
2023-01-31T14:45:41.848Z,98895.00
2023-01-31T14:49:25.501Z,98887.00
2023-01-31T14:52:54.959Z,98878.00
2023-01-31T15:03:56.447Z,98846.00
2023-01-31T15:15:13.269Z,98852.00
2023-01-31T15:21:58.099Z,98846.00
2023-01-31T15:28:46.817Z,98853.00
2023-01-31T15:35:46.387Z,98893.00
2023-01-31T15:52:20.687Z,98904.00
2023-01-31T15:59:15.855Z,98912.00
2023-01-31T16:05:58.991Z,98901.00
2023-01-31T16:12:51.877Z,98909.00
2023-01-31T16:19:39.237Z,98917.00
2023-01-31T16:26:28.688Z,98935.00
2023-01-31T16:33:27.866Z,98894.00
2023-01-31T16:40:32.075Z,98912.00
2023-01-31T17:08:20.253Z,98938.00
2023-01-31T17:11:42.578Z,98933.00
2023-01-31T17:19:36.583Z,98900.00
2023-01-31T17:23:10.008Z,98932.00
2023-01-31T17:30:10.892Z,98954.00
2023-01-31T17:36:52.013Z,98908.00
2023-01-31T17:43:46.429Z,98919.00
2023-01-31T17:50:37.766Z,98919.00
2023-01-31T18:45:04.276Z,98887.00
2023-01-31T18:51:58.979Z,98875.00
2023-01-31T18:59:06.055Z,98861.00
2023-01-31T19:06:54.189Z,98898.00
2023-01-31T19:17:45.429Z,98904.00
2023-01-31T19:46:51.256Z,98869.00
2023-01-31T19:53:41.659Z,98868.00
2023-01-31T20:07:52.423Z,98830.00
2023-01-31T20:24:37.367Z,98842.00
2023-01-31T20:59:23.488Z,98881.00
2023-01-31T21:11:52.021Z,98893.00
2023-01-31T21:19:01.057Z,98886.00
2023-01-31T22:15:30.648Z,98829.00
2023-01-31T22:19:20.299Z,98842.00
2023-01-31T22:26:10.088Z,98856.00
2023-01-31T22:33:07.435Z,98853.00
2023-01-31T22:40:04.451Z,98889.00
2023-01-31T22:46:53.801Z,98853.00
2023-01-31T22:53:54.616Z,98892.00
2023-01-31T23:00:50.112Z,98889.00
2023-01-31T23:07:52.506Z,98875.00
2023-01-31T23:10:31.147Z,98863.00
2023-01-31T23:27:20.295Z,98837.00
2023-01-31T23:34:09.493Z,98852.00
2023-01-31T23:41:08.552Z,98851.00
